Denver, Colorado
Current Conditions -  °F | °C
As of 3:58 AM on Wednesday 26 Nov 2014 (Local Time) from KBKF Reporting Station
Broken Clouds Broken Clouds  
Wind Chill: 25°   Ceiling: 3200
Heat Index: 25°   Visibility: 10mi
Dew Point: 24°   Wind: 3mph
Humidity: 93%   Direction: 80°E
Pressure: 30.19"   Gusts: NA
Location:  39.74°N, 104.99°W
Report Text: KBKF 261058Z 08003KT 10SM SCT020 BKN032 BKN040 M04/M05 A3019 RMK AO2A SNE1038 SLP231 P0000 T10371047
Loading
Personal Weather Stations






























Interactive Weather Map New forecast layout! Learn more

10-Day Weather Forecast

Advertisements
Track Severe Weather on mobile